sensor_id;sensor_type;location;lat;lon;timestamp;temperature;humidity
9450;DHT22;4763;48.370;10.874;2023-02-28T02:55:49;-1.50;99.90
9450;DHT22;4763;48.370;10.874;2023-02-28T02:58:47;-1.50;99.90
9450;DHT22;4763;48.370;10.874;2023-02-28T03:01:45;-1.40;99.90
9450;DHT22;4763;48.370;10.874;2023-02-28T03:04:45;-1.50;99.90
9450;DHT22;4763;48.370;10.874;2023-02-28T03:07:39;-1.50;99.90
9450;DHT22;4763;48.370;10.874;2023-02-28T03:17:14;-1.50;99.90
9450;DHT22;4763;48.370;10.874;2023-02-28T03:28:33;-1.40;99.90
9450;DHT22;4763;48.370;10.874;2023-02-28T04:01:32;-1.40;99.90
9450;DHT22;4763;48.370;10.874;2023-02-28T04:04:28;-1.50;99.90
9450;DHT22;4763;48.370;10.874;2023-02-28T04:07:15;-1.40;99.90
9450;DHT22;4763;48.370;10.874;2023-02-28T04:21:39;-1.30;99.90
9450;DHT22;4763;48.370;10.874;2023-02-28T04:24:27;-1.30;99.90
9450;DHT22;4763;48.370;10.874;2023-02-28T04:27:15;-1.30;99.90
9450;DHT22;4763;48.370;10.874;2023-02-28T04:30:05;-1.30;99.90
9450;DHT22;4763;48.370;10.874;2023-02-28T04:32:54;-1.40;99.90
9450;DHT22;4763;48.370;10.874;2023-02-28T04:36:05;-1.30;99.90
9450;DHT22;4763;48.370;10.874;2023-02-28T04:39:08;-1.40;99.90
9450;DHT22;4763;48.370;10.874;2023-02-28T05:12:00;-1.40;99.90
9450;DHT22;4763;48.370;10.874;2023-02-28T05:14:47;-1.50;99.90
9450;DHT22;4763;48.370;10.874;2023-02-28T05:17:37;-1.40;99.90
9450;DHT22;4763;48.370;10.874;2023-02-28T09:58:08;1.30;99.90
9450;DHT22;4763;48.370;10.874;2023-02-28T10:31:20;2.40;99.90
9450;DHT22;4763;48.370;10.874;2023-02-28T10:34:14;2.70;99.90
9450;DHT22;4763;48.370;10.874;2023-02-28T10:37:03;2.80;99.90
9450;DHT22;4763;48.370;10.874;2023-02-28T10:39:53;3.00;99.90
9450;DHT22;4763;48.370;10.874;2023-02-28T10:42:55;3.10;99.90
9450;DHT22;4763;48.370;10.874;2023-02-28T10:45:59;3.40;99.90
9450;DHT22;4763;48.370;10.874;2023-02-28T10:49:00;3.60;99.90
9450;DHT22;4763;48.370;10.874;2023-02-28T10:54:30;3.00;99.90
9450;DHT22;4763;48.370;10.874;2023-02-28T10:57:21;3.10;99.90
9450;DHT22;4763;48.370;10.874;2023-02-28T11:00:15;3.20;99.90
9450;DHT22;4763;48.370;10.874;2023-02-28T11:03:25;3.20;99.90
9450;DHT22;4763;48.370;10.874;2023-02-28T11:06:23;3.50;99.90
9450;DHT22;4763;48.370;10.874;2023-02-28T11:09:20;3.60;99.90
9450;DHT22;4763;48.370;10.874;2023-02-28T11:12:23;3.70;99.90
9450;DHT22;4763;48.370;10.874;2023-02-28T11:15:22;3.90;99.90
9450;DHT22;4763;48.370;10.874;2023-02-28T11:18:21;3.90;99.90
9450;DHT22;4763;48.370;10.874;2023-02-28T11:21:15;3.90;99.90
9450;DHT22;4763;48.370;10.874;2023-02-28T11:24:14;3.80;99.90
9450;DHT22;4763;48.370;10.874;2023-02-28T11:27:05;3.90;99.90
9450;DHT22;4763;48.370;10.874;2023-02-28T11:29:56;4.00;99.90
9450;DHT22;4763;48.370;10.874;2023-02-28T11:32:48;4.10;99.90
9450;DHT22;4763;48.370;10.874;2023-02-28T11:35:42;4.10;99.90
9450;DHT22;4763;48.370;10.874;2023-02-28T11:38:29;4.40;99.90
9450;DHT22;4763;48.370;10.874;2023-02-28T11:41:33;4.40;99.90
9450;DHT22;4763;48.370;10.874;2023-02-28T11:44:33;4.40;99.90
9450;DHT22;4763;48.370;10.874;2023-02-28T11:47:32;4.50;99.90
9450;DHT22;4763;48.370;10.874;2023-02-28T11:50:37;4.40;99.90
9450;DHT22;4763;48.370;10.874;2023-02-28T11:56:42;4.70;99.90
9450;DHT22;4763;48.370;10.874;2023-02-28T11:59:51;5.00;99.90
9450;DHT22;4763;48.370;10.874;2023-02-28T12:02:53;5.30;99.90
9450;DHT22;4763;48.370;10.874;2023-02-28T12:05:45;5.60;99.90
9450;DHT22;4763;48.370;10.874;2023-02-28T12:08:49;5.70;99.90
9450;DHT22;4763;48.370;10.874;2023-02-28T12:11:48;6.00;99.90
9450;DHT22;4763;48.370;10.874;2023-02-28T12:14:54;6.10;99.90
9450;DHT22;4763;48.370;10.874;2023-02-28T12:17:54;6.30;99.90
9450;DHT22;4763;48.370;10.874;2023-02-28T12:20:49;6.20;99.90
9450;DHT22;4763;48.370;10.874;2023-02-28T12:23:57;6.00;99.90
9450;DHT22;4763;48.370;10.874;2023-02-28T12:26:49;5.90;99.90
9450;DHT22;4763;48.370;10.874;2023-02-28T12:29:42;5.90;99.90
9450;DHT22;4763;48.370;10.874;2023-02-28T12:32:33;5.80;99.90
9450;DHT22;4763;48.370;10.874;2023-02-28T12:35:25;6.00;99.90
9450;DHT22;4763;48.370;10.874;2023-02-28T12:38:15;6.20;99.90
9450;DHT22;4763;48.370;10.874;2023-02-28T12:41:10;6.20;99.90
9450;DHT22;4763;48.370;10.874;2023-02-28T12:44:06;6.30;99.90
9450;DHT22;4763;48.370;10.874;2023-02-28T12:46:59;6.40;99.90
9450;DHT22;4763;48.370;10.874;2023-02-28T12:49:51;6.70;99.90
9450;DHT22;4763;48.370;10.874;2023-02-28T12:52:46;6.50;99.90
9450;DHT22;4763;48.370;10.874;2023-02-28T12:55:40;6.50;99.90
9450;DHT22;4763;48.370;10.874;2023-02-28T12:58:33;6.60;99.90
9450;DHT22;4763;48.370;10.874;2023-02-28T13:01:56;6.60;99.90
9450;DHT22;4763;48.370;10.874;2023-02-28T13:05:01;6.90;99.90
9450;DHT22;4763;48.370;10.874;2023-02-28T13:11:28;6.80;99.90
9450;DHT22;4763;48.370;10.874;2023-02-28T13:14:28;7.10;99.90
9450;DHT22;4763;48.370;10.874;2023-02-28T13:17:24;7.20;99.90
9450;DHT22;4763;48.370;10.874;2023-02-28T13:20:16;7.10;99.90
9450;DHT22;4763;48.370;10.874;2023-02-28T13:23:38;7.10;99.90
9450;DHT22;4763;48.370;10.874;2023-02-28T13:29:59;7.00;99.90
9450;DHT22;4763;48.370;10.874;2023-02-28T13:33:21;7.00;99.90
9450;DHT22;4763;48.370;10.874;2023-02-28T13:36:25;7.10;99.90
9450;DHT22;4763;48.370;10.874;2023-02-28T13:39:46;7.00;99.90
9450;DHT22;4763;48.370;10.874;2023-02-28T13:42:34;7.10;99.90
9450;DHT22;4763;48.370;10.874;2023-02-28T13:45:25;6.90;99.90
9450;DHT22;4763;48.370;10.874;2023-02-28T13:48:18;7.30;99.90
9450;DHT22;4763;48.370;10.874;2023-02-28T13:51:34;7.40;99.90
9450;DHT22;4763;48.370;10.874;2023-02-28T13:54:39;7.20;99.90
9450;DHT22;4763;48.370;10.874;2023-02-28T13:57:39;6.90;99.90
9450;DHT22;4763;48.370;10.874;2023-02-28T14:00:39;6.80;99.90
9450;DHT22;4763;48.370;10.874;2023-02-28T14:03:46;6.60;99.90
9450;DHT22;4763;48.370;10.874;2023-02-28T14:06:37;6.60;99.90
9450;DHT22;4763;48.370;10.874;2023-02-28T14:09:26;6.40;99.90
9450;DHT22;4763;48.370;10.874;2023-02-28T14:15:48;5.80;99.90
9450;DHT22;4763;48.370;10.874;2023-02-28T14:18:40;5.90;99.90
9450;DHT22;4763;48.370;10.874;2023-02-28T14:21:30;6.00;99.90
9450;DHT22;4763;48.370;10.874;2023-02-28T14:24:51;6.10;99.90
9450;DHT22;4763;48.370;10.874;2023-02-28T14:27:48;6.30;99.90
9450;DHT22;4763;48.370;10.874;2023-02-28T14:30:56;6.50;99.90
9450;DHT22;4763;48.370;10.874;2023-02-28T14:34:05;6.70;99.90
9450;DHT22;4763;48.370;10.874;2023-02-28T14:36:58;7.30;99.90
9450;DHT22;4763;48.370;10.874;2023-02-28T14:40:01;7.40;99.90
9450;DHT22;4763;48.370;10.874;2023-02-28T14:42:55;7.40;99.90
9450;DHT22;4763;48.370;10.874;2023-02-28T14:45:43;7.60;99.90
9450;DHT22;4763;48.370;10.874;2023-02-28T14:48:30;7.70;99.90
9450;DHT22;4763;48.370;10.874;2023-02-28T14:51:22;8.00;99.90
9450;DHT22;4763;48.370;10.874;2023-02-28T14:54:14;7.80;99.90
9450;DHT22;4763;48.370;10.874;2023-02-28T14:57:03;7.90;99.90
9450;DHT22;4763;48.370;10.874;2023-02-28T14:59:58;7.80;99.90
9450;DHT22;4763;48.370;10.874;2023-02-28T15:02:45;8.10;99.90
9450;DHT22;4763;48.370;10.874;2023-02-28T15:05:33;8.20;99.90
9450;DHT22;4763;48.370;10.874;2023-02-28T15:08:20;7.90;99.90
9450;DHT22;4763;48.370;10.874;2023-02-28T15:11:11;7.60;99.90
9450;DHT22;4763;48.370;10.874;2023-02-28T15:14:01;7.30;99.90
9450;DHT22;4763;48.370;10.874;2023-02-28T15:16:52;7.10;99.90
9450;DHT22;4763;48.370;10.874;2023-02-28T15:19:45;7.00;99.90
9450;DHT22;4763;48.370;10.874;2023-02-28T15:22:36;7.30;99.90
9450;DHT22;4763;48.370;10.874;2023-02-28T15:25:24;7.30;99.90
9450;DHT22;4763;48.370;10.874;2023-02-28T15:28:15;7.40;99.90
9450;DHT22;4763;48.370;10.874;2023-02-28T15:31:19;7.20;99.90
9450;DHT22;4763;48.370;10.874;2023-02-28T15:34:18;7.20;99.90
9450;DHT22;4763;48.370;10.874;2023-02-28T15:37:26;7.00;99.90
9450;DHT22;4763;48.370;10.874;2023-02-28T15:40:17;6.60;99.90
9450;DHT22;4763;48.370;10.874;2023-02-28T15:43:14;6.30;99.90
9450;DHT22;4763;48.370;10.874;2023-02-28T15:46:05;5.70;99.90
9450;DHT22;4763;48.370;10.874;2023-02-28T15:48:54;5.30;99.90
9450;DHT22;4763;48.370;10.874;2023-02-28T15:51:42;5.20;99.90
9450;DHT22;4763;48.370;10.874;2023-02-28T15:54:31;5.00;99.90
9450;DHT22;4763;48.370;10.874;2023-02-28T15:57:22;5.00;99.90
9450;DHT22;4763;48.370;10.874;2023-02-28T16:00:13;4.80;99.90
9450;DHT22;4763;48.370;10.874;2023-02-28T16:03:22;4.80;99.90
9450;DHT22;4763;48.370;10.874;2023-02-28T16:06:35;4.80;99.90
9450;DHT22;4763;48.370;10.874;2023-02-28T16:09:22;4.60;99.90
9450;DHT22;4763;48.370;10.874;2023-02-28T16:12:10;4.40;99.90
9450;DHT22;4763;48.370;10.874;2023-02-28T16:15:01;4.20;99.90
9450;DHT22;4763;48.370;10.874;2023-02-28T16:17:49;4.20;99.90
9450;DHT22;4763;48.370;10.874;2023-02-28T16:20:38;4.20;99.90
9450;DHT22;4763;48.370;10.874;2023-02-28T16:23:25;4.20;99.90
9450;DHT22;4763;48.370;10.874;2023-02-28T16:26:18;4.10;99.90
9450;DHT22;4763;48.370;10.874;2023-02-28T16:29:08;4.00;99.90
9450;DHT22;4763;48.370;10.874;2023-02-28T16:31:56;3.90;99.90
9450;DHT22;4763;48.370;10.874;2023-02-28T16:34:43;3.80;99.90
9450;DHT22;4763;48.370;10.874;2023-02-28T16:37:32;3.80;99.90
9450;DHT22;4763;48.370;10.874;2023-02-28T16:40:21;3.70;99.90
9450;DHT22;4763;48.370;10.874;2023-02-28T16:43:15;3.60;99.90
9450;DHT22;4763;48.370;10.874;2023-02-28T16:46:02;3.60;99.90
9450;DHT22;4763;48.370;10.874;2023-02-28T16:48:51;3.60;99.90
9450;DHT22;4763;48.370;10.874;2023-02-28T16:51:38;3.60;99.90
9450;DHT22;4763;48.370;10.874;2023-02-28T16:54:27;3.50;99.90
9450;DHT22;4763;48.370;10.874;2023-02-28T16:57:18;3.30;99.90
9450;DHT22;4763;48.370;10.874;2023-02-28T17:00:08;3.20;99.90
9450;DHT22;4763;48.370;10.874;2023-02-28T17:02:58;3.10;99.90
9450;DHT22;4763;48.370;10.874;2023-02-28T17:05:45;3.10;99.90
9450;DHT22;4763;48.370;10.874;2023-02-28T17:08:33;3.00;99.90
9450;DHT22;4763;48.370;10.874;2023-02-28T17:11:22;3.00;99.90
9450;DHT22;4763;48.370;10.874;2023-02-28T17:14:09;2.90;99.90
9450;DHT22;4763;48.370;10.874;2023-02-28T17:16:56;2.90;99.90
9450;DHT22;4763;48.370;10.874;2023-02-28T17:19:43;2.90;99.90
9450;DHT22;4763;48.370;10.874;2023-02-28T17:22:31;2.70;99.90
9450;DHT22;4763;48.370;10.874;2023-02-28T17:25:18;2.70;99.90
9450;DHT22;4763;48.370;10.874;2023-02-28T17:28:08;2.60;99.90
9450;DHT22;4763;48.370;10.874;2023-02-28T17:30:56;2.60;99.90
9450;DHT22;4763;48.370;10.874;2023-02-28T17:33:43;2.50;99.90
9450;DHT22;4763;48.370;10.874;2023-02-28T17:36:30;2.50;99.90
9450;DHT22;4763;48.370;10.874;2023-02-28T17:39:19;2.50;99.90
9450;DHT22;4763;48.370;10.874;2023-02-28T17:42:09;2.40;99.90
9450;DHT22;4763;48.370;10.874;2023-02-28T17:44:58;2.30;99.90
9450;DHT22;4763;48.370;10.874;2023-02-28T17:47:47;2.30;99.90
9450;DHT22;4763;48.370;10.874;2023-02-28T17:50:35;2.20;99.90
9450;DHT22;4763;48.370;10.874;2023-02-28T17:53:22;2.10;99.90
9450;DHT22;4763;48.370;10.874;2023-02-28T17:56:12;2.10;99.90
9450;DHT22;4763;48.370;10.874;2023-02-28T17:59:00;2.10;99.90
9450;DHT22;4763;48.370;10.874;2023-02-28T18:01:49;2.10;99.90
9450;DHT22;4763;48.370;10.874;2023-02-28T18:04:36;2.00;99.90
9450;DHT22;4763;48.370;10.874;2023-02-28T18:07:23;2.00;99.90
9450;DHT22;4763;48.370;10.874;2023-02-28T18:13:05;1.90;99.90
9450;DHT22;4763;48.370;10.874;2023-02-28T18:15:52;1.80;99.90
9450;DHT22;4763;48.370;10.874;2023-02-28T18:18:41;1.90;99.90
9450;DHT22;4763;48.370;10.874;2023-02-28T18:21:28;1.80;99.90
9450;DHT22;4763;48.370;10.874;2023-02-28T18:24:17;1.70;99.90
9450;DHT22;4763;48.370;10.874;2023-02-28T18:27:04;1.60;99.90
9450;DHT22;4763;48.370;10.874;2023-02-28T18:29:51;1.60;99.90
9450;DHT22;4763;48.370;10.874;2023-02-28T18:32:39;1.50;99.90
9450;DHT22;4763;48.370;10.874;2023-02-28T18:35:28;1.50;99.90
9450;DHT22;4763;48.370;10.874;2023-02-28T18:38:21;1.50;99.90
9450;DHT22;4763;48.370;10.874;2023-02-28T18:41:08;1.40;99.90
9450;DHT22;4763;48.370;10.874;2023-02-28T18:43:55;1.40;99.90
9450;DHT22;4763;48.370;10.874;2023-02-28T18:46:42;1.40;99.90
9450;DHT22;4763;48.370;10.874;2023-02-28T18:49:30;1.30;99.90
9450;DHT22;4763;48.370;10.874;2023-02-28T18:52:20;1.30;99.90
9450;DHT22;4763;48.370;10.874;2023-02-28T18:55:07;1.30;99.90
9450;DHT22;4763;48.370;10.874;2023-02-28T18:57:55;1.30;99.90
9450;DHT22;4763;48.370;10.874;2023-02-28T19:00:42;1.30;99.90
9450;DHT22;4763;48.370;10.874;2023-02-28T19:03:29;1.30;99.90
9450;DHT22;4763;48.370;10.874;2023-02-28T19:06:17;1.30;99.90
9450;DHT22;4763;48.370;10.874;2023-02-28T19:09:06;1.30;99.90
9450;DHT22;4763;48.370;10.874;2023-02-28T19:11:53;1.20;99.90
9450;DHT22;4763;48.370;10.874;2023-02-28T19:14:40;1.30;99.90
9450;DHT22;4763;48.370;10.874;2023-02-28T19:17:27;1.40;99.90
9450;DHT22;4763;48.370;10.874;2023-02-28T19:20:14;1.40;99.90
9450;DHT22;4763;48.370;10.874;2023-02-28T19:23:01;1.40;99.90
9450;DHT22;4763;48.370;10.874;2023-02-28T19:25:50;1.30;99.90
9450;DHT22;4763;48.370;10.874;2023-02-28T19:28:38;1.30;99.90
9450;DHT22;4763;48.370;10.874;2023-02-28T19:31:25;1.30;99.90
9450;DHT22;4763;48.370;10.874;2023-02-28T19:34:12;1.30;99.90
9450;DHT22;4763;48.370;10.874;2023-02-28T19:36:59;1.30;99.90
9450;DHT22;4763;48.370;10.874;2023-02-28T19:39:47;1.20;99.90
9450;DHT22;4763;48.370;10.874;2023-02-28T19:42:35;1.20;99.90
9450;DHT22;4763;48.370;10.874;2023-02-28T19:45:22;1.20;99.90
9450;DHT22;4763;48.370;10.874;2023-02-28T19:48:09;1.10;99.90
9450;DHT22;4763;48.370;10.874;2023-02-28T19:50:57;1.10;99.90
9450;DHT22;4763;48.370;10.874;2023-02-28T19:53:44;1.00;99.90
9450;DHT22;4763;48.370;10.874;2023-02-28T19:56:31;1.00;99.90
9450;DHT22;4763;48.370;10.874;2023-02-28T19:59:19;1.00;99.90
9450;DHT22;4763;48.370;10.874;2023-02-28T20:02:12;0.90;99.90
9450;DHT22;4763;48.370;10.874;2023-02-28T20:04:59;0.90;99.90
9450;DHT22;4763;48.370;10.874;2023-02-28T20:07:46;0.90;99.90
9450;DHT22;4763;48.370;10.874;2023-02-28T20:10:34;0.90;99.90
9450;DHT22;4763;48.370;10.874;2023-02-28T20:13:22;0.90;99.90
9450;DHT22;4763;48.370;10.874;2023-02-28T20:16:12;0.90;99.90
9450;DHT22;4763;48.370;10.874;2023-02-28T20:19:00;0.90;99.90
9450;DHT22;4763;48.370;10.874;2023-02-28T20:21:47;0.80;99.90
9450;DHT22;4763;48.370;10.874;2023-02-28T20:24:34;0.80;99.90
9450;DHT22;4763;48.370;10.874;2023-02-28T20:27:21;0.70;99.90
9450;DHT22;4763;48.370;10.874;2023-02-28T20:30:09;0.80;99.90
9450;DHT22;4763;48.370;10.874;2023-02-28T20:32:58;0.80;99.90
9450;DHT22;4763;48.370;10.874;2023-02-28T20:35:45;0.70;99.90
9450;DHT22;4763;48.370;10.874;2023-02-28T20:38:33;0.80;99.90
9450;DHT22;4763;48.370;10.874;2023-02-28T20:41:22;0.70;99.90
9450;DHT22;4763;48.370;10.874;2023-02-28T20:44:11;0.70;99.90
9450;DHT22;4763;48.370;10.874;2023-02-28T20:46:59;0.80;99.90
9450;DHT22;4763;48.370;10.874;2023-02-28T20:49:47;0.80;99.90
9450;DHT22;4763;48.370;10.874;2023-02-28T20:52:34;0.80;99.90
9450;DHT22;4763;48.370;10.874;2023-02-28T20:55:22;0.80;99.90
9450;DHT22;4763;48.370;10.874;2023-02-28T20:58:09;0.80;99.90
9450;DHT22;4763;48.370;10.874;2023-02-28T21:01:00;0.80;99.90
9450;DHT22;4763;48.370;10.874;2023-02-28T21:03:49;0.80;99.90
9450;DHT22;4763;48.370;10.874;2023-02-28T21:06:39;0.80;99.90
9450;DHT22;4763;48.370;10.874;2023-02-28T21:09:27;0.90;99.90
9450;DHT22;4763;48.370;10.874;2023-02-28T21:12:14;0.90;99.90
9450;DHT22;4763;48.370;10.874;2023-02-28T21:15:02;0.90;99.90
9450;DHT22;4763;48.370;10.874;2023-02-28T21:17:49;0.90;99.90
9450;DHT22;4763;48.370;10.874;2023-02-28T21:20:36;1.00;99.90
9450;DHT22;4763;48.370;10.874;2023-02-28T21:23:24;0.90;99.90
9450;DHT22;4763;48.370;10.874;2023-02-28T21:26:13;1.10;99.90
9450;DHT22;4763;48.370;10.874;2023-02-28T21:29:01;1.00;99.90
9450;DHT22;4763;48.370;10.874;2023-02-28T21:31:49;1.00;99.90
9450;DHT22;4763;48.370;10.874;2023-02-28T21:34:37;1.00;99.90
9450;DHT22;4763;48.370;10.874;2023-02-28T21:37:24;1.00;99.90
9450;DHT22;4763;48.370;10.874;2023-02-28T21:40:14;1.00;99.90
9450;DHT22;4763;48.370;10.874;2023-02-28T21:43:01;1.00;99.90
9450;DHT22;4763;48.370;10.874;2023-02-28T21:45:48;1.00;99.90
9450;DHT22;4763;48.370;10.874;2023-02-28T21:48:36;1.00;99.90
9450;DHT22;4763;48.370;10.874;2023-02-28T21:51:25;1.10;99.90
9450;DHT22;4763;48.370;10.874;2023-02-28T21:54:12;1.00;99.90
9450;DHT22;4763;48.370;10.874;2023-02-28T21:57:01;1.00;99.90
9450;DHT22;4763;48.370;10.874;2023-02-28T21:59:48;1.00;99.90
9450;DHT22;4763;48.370;10.874;2023-02-28T22:02:35;1.00;99.90
9450;DHT22;4763;48.370;10.874;2023-02-28T22:05:22;1.00;99.90
9450;DHT22;4763;48.370;10.874;2023-02-28T22:08:10;1.00;99.90
9450;DHT22;4763;48.370;10.874;2023-02-28T22:11:01;1.00;99.90
9450;DHT22;4763;48.370;10.874;2023-02-28T22:13:51;1.00;99.90
9450;DHT22;4763;48.370;10.874;2023-02-28T22:16:39;1.00;99.90
9450;DHT22;4763;48.370;10.874;2023-02-28T22:19:26;1.10;99.90
9450;DHT22;4763;48.370;10.874;2023-02-28T22:22:13;1.00;99.90
9450;DHT22;4763;48.370;10.874;2023-02-28T22:25:00;1.00;99.90
9450;DHT22;4763;48.370;10.874;2023-02-28T22:27:47;1.00;99.90
9450;DHT22;4763;48.370;10.874;2023-02-28T22:30:36;1.00;99.90
9450;DHT22;4763;48.370;10.874;2023-02-28T22:33:23;1.00;99.90
9450;DHT22;4763;48.370;10.874;2023-02-28T22:36:11;1.00;99.90
9450;DHT22;4763;48.370;10.874;2023-02-28T22:38:59;1.00;99.90
9450;DHT22;4763;48.370;10.874;2023-02-28T22:41:46;1.00;99.90
9450;DHT22;4763;48.370;10.874;2023-02-28T22:44:34;1.00;99.90
9450;DHT22;4763;48.370;10.874;2023-02-28T22:47:22;1.10;99.90
9450;DHT22;4763;48.370;10.874;2023-02-28T22:50:11;1.00;99.90
9450;DHT22;4763;48.370;10.874;2023-02-28T22:52:58;1.10;99.90
9450;DHT22;4763;48.370;10.874;2023-02-28T22:55:53;1.00;99.90
9450;DHT22;4763;48.370;10.874;2023-02-28T22:58:41;1.00;99.90
9450;DHT22;4763;48.370;10.874;2023-02-28T23:01:29;1.10;99.90
9450;DHT22;4763;48.370;10.874;2023-02-28T23:04:18;1.10;99.90
9450;DHT22;4763;48.370;10.874;2023-02-28T23:07:05;1.10;99.90
9450;DHT22;4763;48.370;10.874;2023-02-28T23:09:52;1.10;99.90
9450;DHT22;4763;48.370;10.874;2023-02-28T23:12:39;1.00;99.90
9450;DHT22;4763;48.370;10.874;2023-02-28T23:15:38;1.00;99.90
9450;DHT22;4763;48.370;10.874;2023-02-28T23:18:25;1.00;99.90
9450;DHT22;4763;48.370;10.874;2023-02-28T23:21:14;1.00;99.90
9450;DHT22;4763;48.370;10.874;2023-02-28T23:24:01;1.00;99.90
9450;DHT22;4763;48.370;10.874;2023-02-28T23:26:51;1.00;99.90
9450;DHT22;4763;48.370;10.874;2023-02-28T23:29:39;1.00;99.90
9450;DHT22;4763;48.370;10.874;2023-02-28T23:32:26;1.00;99.90
9450;DHT22;4763;48.370;10.874;2023-02-28T23:35:14;1.00;99.90
9450;DHT22;4763;48.370;10.874;2023-02-28T23:38:03;1.10;99.90
9450;DHT22;4763;48.370;10.874;2023-02-28T23:40:50;1.10;99.90
9450;DHT22;4763;48.370;10.874;2023-02-28T23:43:37;1.10;99.90
9450;DHT22;4763;48.370;10.874;2023-02-28T23:46:25;1.10;99.90
9450;DHT22;4763;48.370;10.874;2023-02-28T23:49:13;1.10;99.90
9450;DHT22;4763;48.370;10.874;2023-02-28T23:52:00;1.10;99.90
9450;DHT22;4763;48.370;10.874;2023-02-28T23:54:48;1.00;99.90
9450;DHT22;4763;48.370;10.874;2023-02-28T23:57:36;1.20;99.90
